sensor_id;sensor_type;location;lat;lon;timestamp;P1;durP1;ratioP1;P2;durP2;ratioP2
16975;SDS011;8604;48.148;-1.786;2023-07-30T00:02:17;10.07;;;2.10;;
16975;SDS011;8604;48.148;-1.786;2023-07-30T00:04:46;7.47;;;2.10;;
16975;SDS011;8604;48.148;-1.786;2023-07-30T00:07:14;9.47;;;2.07;;
16975;SDS011;8604;48.148;-1.786;2023-07-30T00:09:44;8.57;;;2.07;;
16975;SDS011;8604;48.148;-1.786;2023-07-30T00:12:12;10.40;;;2.03;;
16975;SDS011;8604;48.148;-1.786;2023-07-30T00:14:40;7.43;;;2.30;;
16975;SDS011;8604;48.148;-1.786;2023-07-30T00:17:09;8.50;;;2.60;;
16975;SDS011;8604;48.148;-1.786;2023-07-30T00:19:38;9.43;;;2.50;;
16975;SDS011;8604;48.148;-1.786;2023-07-30T00:22:06;11.93;;;2.80;;
16975;SDS011;8604;48.148;-1.786;2023-07-30T00:24:34;9.40;;;2.27;;
16975;SDS011;8604;48.148;-1.786;2023-07-30T00:27:04;13.50;;;2.50;;
16975;SDS011;8604;48.148;-1.786;2023-07-30T00:29:33;10.27;;;2.30;;
16975;SDS011;8604;48.148;-1.786;2023-07-30T00:32:02;8.20;;;1.90;;
16975;SDS011;8604;48.148;-1.786;2023-07-30T00:34:30;14.60;;;2.53;;
16975;SDS011;8604;48.148;-1.786;2023-07-30T00:36:58;12.53;;;2.30;;
16975;SDS011;8604;48.148;-1.786;2023-07-30T00:39:27;11.87;;;2.47;;
16975;SDS011;8604;48.148;-1.786;2023-07-30T00:41:55;10.20;;;2.17;;
16975;SDS011;8604;48.148;-1.786;2023-07-30T00:44:25;9.60;;;2.40;;
16975;SDS011;8604;48.148;-1.786;2023-07-30T00:46:53;9.80;;;2.50;;
16975;SDS011;8604;48.148;-1.786;2023-07-30T00:49:21;8.27;;;2.40;;
16975;SDS011;8604;48.148;-1.786;2023-07-30T00:51:50;8.73;;;2.07;;
16975;SDS011;8604;48.148;-1.786;2023-07-30T00:54:18;11.67;;;2.20;;
16975;SDS011;8604;48.148;-1.786;2023-07-30T00:56:48;8.40;;;2.07;;
16975;SDS011;8604;48.148;-1.786;2023-07-30T00:59:19;10.40;;;2.50;;
16975;SDS011;8604;48.148;-1.786;2023-07-30T01:01:49;10.47;;;2.73;;
16975;SDS011;8604;48.148;-1.786;2023-07-30T01:04:19;12.00;;;2.67;;
16975;SDS011;8604;48.148;-1.786;2023-07-30T01:06:48;9.40;;;2.33;;
16975;SDS011;8604;48.148;-1.786;2023-07-30T01:09:16;10.43;;;2.40;;
16975;SDS011;8604;48.148;-1.786;2023-07-30T01:11:45;9.50;;;2.23;;
16975;SDS011;8604;48.148;-1.786;2023-07-30T01:14:13;7.20;;;2.20;;
16975;SDS011;8604;48.148;-1.786;2023-07-30T01:16:43;9.77;;;2.70;;
16975;SDS011;8604;48.148;-1.786;2023-07-30T01:19:13;10.93;;;2.23;;
16975;SDS011;8604;48.148;-1.786;2023-07-30T01:21:42;13.47;;;2.50;;
16975;SDS011;8604;48.148;-1.786;2023-07-30T01:24:11;8.87;;;2.30;;
16975;SDS011;8604;48.148;-1.786;2023-07-30T01:26:40;9.43;;;2.40;;
16975;SDS011;8604;48.148;-1.786;2023-07-30T01:29:13;11.53;;;2.53;;
16975;SDS011;8604;48.148;-1.786;2023-07-30T01:31:46;7.33;;;2.03;;
16975;SDS011;8604;48.148;-1.786;2023-07-30T01:34:22;8.43;;;2.30;;
16975;SDS011;8604;48.148;-1.786;2023-07-30T01:36:53;8.43;;;2.20;;
16975;SDS011;8604;48.148;-1.786;2023-07-30T01:39:23;9.07;;;2.37;;
16975;SDS011;8604;48.148;-1.786;2023-07-30T01:41:53;10.20;;;2.47;;
16975;SDS011;8604;48.148;-1.786;2023-07-30T01:44:21;8.37;;;2.53;;
16975;SDS011;8604;48.148;-1.786;2023-07-30T01:46:50;7.23;;;2.43;;
16975;SDS011;8604;48.148;-1.786;2023-07-30T01:49:18;10.37;;;2.97;;
16975;SDS011;8604;48.148;-1.786;2023-07-30T01:51:47;11.73;;;2.90;;
16975;SDS011;8604;48.148;-1.786;2023-07-30T01:54:17;8.70;;;2.80;;
16975;SDS011;8604;48.148;-1.786;2023-07-30T01:56:45;8.30;;;2.30;;
16975;SDS011;8604;48.148;-1.786;2023-07-30T01:59:14;8.30;;;2.37;;
16975;SDS011;8604;48.148;-1.786;2023-07-30T02:01:42;8.97;;;2.40;;
16975;SDS011;8604;48.148;-1.786;2023-07-30T02:04:11;12.50;;;2.83;;
16975;SDS011;8604;48.148;-1.786;2023-07-30T02:06:39;9.93;;;2.60;;
16975;SDS011;8604;48.148;-1.786;2023-07-30T02:09:08;7.37;;;2.30;;
16975;SDS011;8604;48.148;-1.786;2023-07-30T02:11:37;10.47;;;2.73;;
16975;SDS011;8604;48.148;-1.786;2023-07-30T02:14:06;13.37;;;3.80;;
16975;SDS011;8604;48.148;-1.786;2023-07-30T02:16:34;10.50;;;2.70;;
16975;SDS011;8604;48.148;-1.786;2023-07-30T02:19:02;11.03;;;2.70;;
16975;SDS011;8604;48.148;-1.786;2023-07-30T02:21:31;11.23;;;3.13;;
16975;SDS011;8604;48.148;-1.786;2023-07-30T02:24:03;9.67;;;2.77;;
16975;SDS011;8604;48.148;-1.786;2023-07-30T02:26:37;10.43;;;2.87;;
16975;SDS011;8604;48.148;-1.786;2023-07-30T02:29:06;13.17;;;2.60;;
16975;SDS011;8604;48.148;-1.786;2023-07-30T02:31:34;12.93;;;3.00;;
16975;SDS011;8604;48.148;-1.786;2023-07-30T02:34:03;10.53;;;2.90;;
16975;SDS011;8604;48.148;-1.786;2023-07-30T02:36:33;14.93;;;2.97;;
16975;SDS011;8604;48.148;-1.786;2023-07-30T02:39:02;10.53;;;2.63;;
16975;SDS011;8604;48.148;-1.786;2023-07-30T02:41:30;9.57;;;2.77;;
16975;SDS011;8604;48.148;-1.786;2023-07-30T02:44:00;7.97;;;2.73;;
16975;SDS011;8604;48.148;-1.786;2023-07-30T02:46:29;13.30;;;2.77;;
16975;SDS011;8604;48.148;-1.786;2023-07-30T02:48:57;12.37;;;2.87;;
16975;SDS011;8604;48.148;-1.786;2023-07-30T02:51:26;11.87;;;2.90;;
16975;SDS011;8604;48.148;-1.786;2023-07-30T02:53:55;12.77;;;3.00;;
16975;SDS011;8604;48.148;-1.786;2023-07-30T02:56:26;11.17;;;3.00;;
16975;SDS011;8604;48.148;-1.786;2023-07-30T02:58:54;10.83;;;3.13;;
16975;SDS011;8604;48.148;-1.786;2023-07-30T03:01:24;13.03;;;3.27;;
16975;SDS011;8604;48.148;-1.786;2023-07-30T03:03:53;8.30;;;2.63;;
16975;SDS011;8604;48.148;-1.786;2023-07-30T03:06:21;8.40;;;2.80;;
16975;SDS011;8604;48.148;-1.786;2023-07-30T03:08:49;11.93;;;3.43;;
16975;SDS011;8604;48.148;-1.786;2023-07-30T03:11:18;8.13;;;2.90;;
16975;SDS011;8604;48.148;-1.786;2023-07-30T03:13:47;10.37;;;2.87;;
16975;SDS011;8604;48.148;-1.786;2023-07-30T03:16:15;10.53;;;2.83;;
16975;SDS011;8604;48.148;-1.786;2023-07-30T03:18:45;13.23;;;3.13;;
16975;SDS011;8604;48.148;-1.786;2023-07-30T03:21:13;13.60;;;3.40;;
16975;SDS011;8604;48.148;-1.786;2023-07-30T03:23:42;7.27;;;2.43;;
16975;SDS011;8604;48.148;-1.786;2023-07-30T03:26:11;8.60;;;2.63;;
16975;SDS011;8604;48.148;-1.786;2023-07-30T03:28:39;10.00;;;2.90;;
16975;SDS011;8604;48.148;-1.786;2023-07-30T03:31:07;11.20;;;2.93;;
16975;SDS011;8604;48.148;-1.786;2023-07-30T03:33:36;10.33;;;2.97;;
16975;SDS011;8604;48.148;-1.786;2023-07-30T03:36:07;8.53;;;2.70;;
16975;SDS011;8604;48.148;-1.786;2023-07-30T03:38:35;9.57;;;3.20;;
16975;SDS011;8604;48.148;-1.786;2023-07-30T03:41:04;12.87;;;3.07;;
16975;SDS011;8604;48.148;-1.786;2023-07-30T03:43:33;13.33;;;3.33;;
16975;SDS011;8604;48.148;-1.786;2023-07-30T03:46:02;10.63;;;3.10;;
16975;SDS011;8604;48.148;-1.786;2023-07-30T03:48:30;10.53;;;2.93;;
16975;SDS011;8604;48.148;-1.786;2023-07-30T03:50:59;11.00;;;3.00;;
16975;SDS011;8604;48.148;-1.786;2023-07-30T03:53:29;11.50;;;2.70;;
16975;SDS011;8604;48.148;-1.786;2023-07-30T03:55:57;12.03;;;2.93;;
16975;SDS011;8604;48.148;-1.786;2023-07-30T03:58:25;10.60;;;2.77;;
16975;SDS011;8604;48.148;-1.786;2023-07-30T04:00:53;11.60;;;2.93;;
16975;SDS011;8604;48.148;-1.786;2023-07-30T04:03:22;8.23;;;2.80;;
16975;SDS011;8604;48.148;-1.786;2023-07-30T04:05:50;12.70;;;3.67;;
16975;SDS011;8604;48.148;-1.786;2023-07-30T04:08:19;15.13;;;3.27;;
16975;SDS011;8604;48.148;-1.786;2023-07-30T04:10:48;7.73;;;2.77;;
16975;SDS011;8604;48.148;-1.786;2023-07-30T04:13:17;13.07;;;3.13;;
16975;SDS011;8604;48.148;-1.786;2023-07-30T04:15:47;11.00;;;3.10;;
16975;SDS011;8604;48.148;-1.786;2023-07-30T04:18:15;7.63;;;2.60;;
16975;SDS011;8604;48.148;-1.786;2023-07-30T04:20:44;14.40;;;3.60;;
16975;SDS011;8604;48.148;-1.786;2023-07-30T04:23:12;12.87;;;3.33;;
16975;SDS011;8604;48.148;-1.786;2023-07-30T04:25:41;10.83;;;3.00;;
16975;SDS011;8604;48.148;-1.786;2023-07-30T04:28:11;13.40;;;3.33;;
16975;SDS011;8604;48.148;-1.786;2023-07-30T04:30:40;10.67;;;3.00;;
16975;SDS011;8604;48.148;-1.786;2023-07-30T04:33:08;14.20;;;3.43;;
16975;SDS011;8604;48.148;-1.786;2023-07-30T04:35:39;14.00;;;2.97;;
16975;SDS011;8604;48.148;-1.786;2023-07-30T04:38:08;12.57;;;3.13;;
16975;SDS011;8604;48.148;-1.786;2023-07-30T04:40:37;10.60;;;2.90;;
16975;SDS011;8604;48.148;-1.786;2023-07-30T04:43:06;11.60;;;3.07;;
16975;SDS011;8604;48.148;-1.786;2023-07-30T04:45:36;9.17;;;3.07;;
16975;SDS011;8604;48.148;-1.786;2023-07-30T04:48:05;9.97;;;3.07;;
16975;SDS011;8604;48.148;-1.786;2023-07-30T04:50:33;10.70;;;3.20;;
16975;SDS011;8604;48.148;-1.786;2023-07-30T04:53:02;15.00;;;3.30;;
16975;SDS011;8604;48.148;-1.786;2023-07-30T04:55:30;15.70;;;3.30;;
16975;SDS011;8604;48.148;-1.786;2023-07-30T04:58:00;9.63;;;3.03;;
16975;SDS011;8604;48.148;-1.786;2023-07-30T05:00:30;13.57;;;3.43;;
16975;SDS011;8604;48.148;-1.786;2023-07-30T05:02:59;10.60;;;3.07;;
16975;SDS011;8604;48.148;-1.786;2023-07-30T05:05:28;10.57;;;3.27;;
16975;SDS011;8604;48.148;-1.786;2023-07-30T05:07:56;11.27;;;3.33;;
16975;SDS011;8604;48.148;-1.786;2023-07-30T05:10:25;11.00;;;3.40;;
16975;SDS011;8604;48.148;-1.786;2023-07-30T05:12:53;14.27;;;3.27;;
16975;SDS011;8604;48.148;-1.786;2023-07-30T05:15:21;11.30;;;2.87;;
16975;SDS011;8604;48.148;-1.786;2023-07-30T05:17:50;13.23;;;3.57;;
16975;SDS011;8604;48.148;-1.786;2023-07-30T05:20:20;13.13;;;3.20;;
16975;SDS011;8604;48.148;-1.786;2023-07-30T05:22:48;10.60;;;2.90;;
16975;SDS011;8604;48.148;-1.786;2023-07-30T05:25:16;11.63;;;3.40;;
16975;SDS011;8604;48.148;-1.786;2023-07-30T05:27:45;13.17;;;3.37;;
16975;SDS011;8604;48.148;-1.786;2023-07-30T05:30:13;11.77;;;2.80;;
16975;SDS011;8604;48.148;-1.786;2023-07-30T05:32:41;10.83;;;3.30;;
16975;SDS011;8604;48.148;-1.786;2023-07-30T05:35:10;13.87;;;3.20;;
16975;SDS011;8604;48.148;-1.786;2023-07-30T05:37:39;9.57;;;3.00;;
16975;SDS011;8604;48.148;-1.786;2023-07-30T05:40:08;13.17;;;3.17;;
16975;SDS011;8604;48.148;-1.786;2023-07-30T05:42:37;14.90;;;3.30;;
16975;SDS011;8604;48.148;-1.786;2023-07-30T05:45:05;11.43;;;3.37;;
16975;SDS011;8604;48.148;-1.786;2023-07-30T05:47:35;10.37;;;3.53;;
16975;SDS011;8604;48.148;-1.786;2023-07-30T05:50:04;11.47;;;3.30;;
16975;SDS011;8604;48.148;-1.786;2023-07-30T05:52:37;11.77;;;3.20;;
16975;SDS011;8604;48.148;-1.786;2023-07-30T05:55:07;11.37;;;3.50;;
16975;SDS011;8604;48.148;-1.786;2023-07-30T06:00:56;10.33;;;3.30;;
16975;SDS011;8604;48.148;-1.786;2023-07-30T06:04:02;13.73;;;3.43;;
16975;SDS011;8604;48.148;-1.786;2023-07-30T06:07:05;11.47;;;3.50;;
16975;SDS011;8604;48.148;-1.786;2023-07-30T06:09:42;8.00;;;3.33;;
16975;SDS011;8604;48.148;-1.786;2023-07-30T06:12:15;14.47;;;3.80;;
16975;SDS011;8604;48.148;-1.786;2023-07-30T06:14:52;13.73;;;3.73;;
16975;SDS011;8604;48.148;-1.786;2023-07-30T06:17:46;12.77;;;3.40;;
16975;SDS011;8604;48.148;-1.786;2023-07-30T06:20:36;9.93;;;3.27;;
16975;SDS011;8604;48.148;-1.786;2023-07-30T06:23:25;12.70;;;3.23;;
16975;SDS011;8604;48.148;-1.786;2023-07-30T06:49:23;9.50;;;3.40;;
16975;SDS011;8604;48.148;-1.786;2023-07-30T06:51:57;10.17;;;3.47;;
16975;SDS011;8604;48.148;-1.786;2023-07-30T06:54:30;11.27;;;3.60;;
16975;SDS011;8604;48.148;-1.786;2023-07-30T06:57:15;12.67;;;4.13;;
16975;SDS011;8604;48.148;-1.786;2023-07-30T06:59:59;12.20;;;4.07;;
16975;SDS011;8604;48.148;-1.786;2023-07-30T07:02:30;13.53;;;4.07;;
16975;SDS011;8604;48.148;-1.786;2023-07-30T07:05:01;11.00;;;4.00;;
16975;SDS011;8604;48.148;-1.786;2023-07-30T07:07:45;12.30;;;3.83;;
16975;SDS011;8604;48.148;-1.786;2023-07-30T07:10:23;13.37;;;4.00;;
16975;SDS011;8604;48.148;-1.786;2023-07-30T07:16:30;12.13;;;4.10;;
16975;SDS011;8604;48.148;-1.786;2023-07-30T07:19:25;12.87;;;4.57;;
16975;SDS011;8604;48.148;-1.786;2023-07-30T07:22:07;13.33;;;4.60;;
16975;SDS011;8604;48.148;-1.786;2023-07-30T07:24:44;14.03;;;4.73;;
16975;SDS011;8604;48.148;-1.786;2023-07-30T07:27:14;16.47;;;5.10;;
16975;SDS011;8604;48.148;-1.786;2023-07-30T07:29:45;12.60;;;4.83;;
16975;SDS011;8604;48.148;-1.786;2023-07-30T07:32:15;16.03;;;5.00;;
16975;SDS011;8604;48.148;-1.786;2023-07-30T07:34:45;12.77;;;4.93;;
16975;SDS011;8604;48.148;-1.786;2023-07-30T07:37:14;12.03;;;4.70;;
16975;SDS011;8604;48.148;-1.786;2023-07-30T07:39:45;13.60;;;5.10;;
16975;SDS011;8604;48.148;-1.786;2023-07-30T07:42:13;10.87;;;4.93;;
16975;SDS011;8604;48.148;-1.786;2023-07-30T07:44:42;12.57;;;4.53;;
16975;SDS011;8604;48.148;-1.786;2023-07-30T07:47:12;12.63;;;5.07;;
16975;SDS011;8604;48.148;-1.786;2023-07-30T07:49:42;12.37;;;4.73;;
16975;SDS011;8604;48.148;-1.786;2023-07-30T07:52:10;12.80;;;4.40;;
16975;SDS011;8604;48.148;-1.786;2023-07-30T07:54:39;14.43;;;5.50;;
16975;SDS011;8604;48.148;-1.786;2023-07-30T07:57:08;14.27;;;5.00;;
16975;SDS011;8604;48.148;-1.786;2023-07-30T07:59:37;12.23;;;4.70;;
16975;SDS011;8604;48.148;-1.786;2023-07-30T08:02:05;13.63;;;5.00;;
16975;SDS011;8604;48.148;-1.786;2023-07-30T08:04:34;13.23;;;5.20;;
16975;SDS011;8604;48.148;-1.786;2023-07-30T08:07:04;13.30;;;5.80;;
16975;SDS011;8604;48.148;-1.786;2023-07-30T08:09:33;12.33;;;4.73;;
16975;SDS011;8604;48.148;-1.786;2023-07-30T08:12:01;10.93;;;5.27;;
16975;SDS011;8604;48.148;-1.786;2023-07-30T08:14:30;12.63;;;4.97;;
16975;SDS011;8604;48.148;-1.786;2023-07-30T08:16:58;11.73;;;4.73;;
16975;SDS011;8604;48.148;-1.786;2023-07-30T08:19:27;13.83;;;5.13;;
16975;SDS011;8604;48.148;-1.786;2023-07-30T08:21:55;11.63;;;4.80;;
16975;SDS011;8604;48.148;-1.786;2023-07-30T08:24:27;10.30;;;4.43;;
16975;SDS011;8604;48.148;-1.786;2023-07-30T08:26:55;12.50;;;5.20;;
16975;SDS011;8604;48.148;-1.786;2023-07-30T08:29:24;13.80;;;5.30;;
16975;SDS011;8604;48.148;-1.786;2023-07-30T08:31:52;11.77;;;4.90;;
16975;SDS011;8604;48.148;-1.786;2023-07-30T08:34:21;14.93;;;5.13;;
16975;SDS011;8604;48.148;-1.786;2023-07-30T08:36:50;10.67;;;4.33;;
16975;SDS011;8604;48.148;-1.786;2023-07-30T08:39:18;13.50;;;5.10;;
16975;SDS011;8604;48.148;-1.786;2023-07-30T08:41:48;11.77;;;4.50;;
16975;SDS011;8604;48.148;-1.786;2023-07-30T08:44:17;12.83;;;5.17;;
16975;SDS011;8604;48.148;-1.786;2023-07-30T08:46:45;10.90;;;4.90;;
16975;SDS011;8604;48.148;-1.786;2023-07-30T08:49:13;13.67;;;5.00;;
16975;SDS011;8604;48.148;-1.786;2023-07-30T08:51:42;11.97;;;4.90;;
16975;SDS011;8604;48.148;-1.786;2023-07-30T08:54:12;10.10;;;4.57;;
16975;SDS011;8604;48.148;-1.786;2023-07-30T08:56:42;10.87;;;5.33;;
16975;SDS011;8604;48.148;-1.786;2023-07-30T08:59:11;11.10;;;4.90;;
16975;SDS011;8604;48.148;-1.786;2023-07-30T09:01:41;11.70;;;5.03;;
16975;SDS011;8604;48.148;-1.786;2023-07-30T09:04:12;12.13;;;5.27;;
16975;SDS011;8604;48.148;-1.786;2023-07-30T09:06:44;12.03;;;5.33;;
16975;SDS011;8604;48.148;-1.786;2023-07-30T09:09:19;13.00;;;4.83;;
16975;SDS011;8604;48.148;-1.786;2023-07-30T09:11:50;11.37;;;5.30;;
16975;SDS011;8604;48.148;-1.786;2023-07-30T09:14:21;11.07;;;4.60;;
16975;SDS011;8604;48.148;-1.786;2023-07-30T09:16:51;11.53;;;4.87;;
16975;SDS011;8604;48.148;-1.786;2023-07-30T09:19:25;11.67;;;4.83;;
16975;SDS011;8604;48.148;-1.786;2023-07-30T09:21:53;15.03;;;5.30;;
16975;SDS011;8604;48.148;-1.786;2023-07-30T09:24:22;11.17;;;4.43;;
16975;SDS011;8604;48.148;-1.786;2023-07-30T09:26:50;10.57;;;4.77;;
16975;SDS011;8604;48.148;-1.786;2023-07-30T09:29:19;12.03;;;4.83;;
16975;SDS011;8604;48.148;-1.786;2023-07-30T09:31:49;11.87;;;5.20;;
16975;SDS011;8604;48.148;-1.786;2023-07-30T09:34:22;13.57;;;5.40;;
16975;SDS011;8604;48.148;-1.786;2023-07-30T09:36:52;13.53;;;5.30;;
16975;SDS011;8604;48.148;-1.786;2023-07-30T09:39:22;12.80;;;4.90;;
16975;SDS011;8604;48.148;-1.786;2023-07-30T09:41:59;12.97;;;4.90;;
16975;SDS011;8604;48.148;-1.786;2023-07-30T09:44:28;11.77;;;4.90;;
16975;SDS011;8604;48.148;-1.786;2023-07-30T09:47:01;11.17;;;5.10;;
16975;SDS011;8604;48.148;-1.786;2023-07-30T09:49:31;12.60;;;4.70;;
16975;SDS011;8604;48.148;-1.786;2023-07-30T09:52:00;12.17;;;5.10;;
16975;SDS011;8604;48.148;-1.786;2023-07-30T09:57:40;9.90;;;4.80;;
16975;SDS011;8604;48.148;-1.786;2023-07-30T10:00:29;9.33;;;4.73;;
16975;SDS011;8604;48.148;-1.786;2023-07-30T10:03:00;11.10;;;5.37;;
16975;SDS011;8604;48.148;-1.786;2023-07-30T10:05:32;11.57;;;4.80;;
16975;SDS011;8604;48.148;-1.786;2023-07-30T10:08:05;9.80;;;4.83;;
16975;SDS011;8604;48.148;-1.786;2023-07-30T10:10:36;11.10;;;4.97;;
16975;SDS011;8604;48.148;-1.786;2023-07-30T10:13:05;11.03;;;4.77;;
16975;SDS011;8604;48.148;-1.786;2023-07-30T10:15:37;10.37;;;4.73;;
16975;SDS011;8604;48.148;-1.786;2023-07-30T10:18:07;11.33;;;4.40;;
16975;SDS011;8604;48.148;-1.786;2023-07-30T10:20:36;14.13;;;5.17;;
16975;SDS011;8604;48.148;-1.786;2023-07-30T10:23:05;10.33;;;4.87;;
16975;SDS011;8604;48.148;-1.786;2023-07-30T10:25:44;10.67;;;4.90;;
16975;SDS011;8604;48.148;-1.786;2023-07-30T10:28:31;9.60;;;4.63;;
16975;SDS011;8604;48.148;-1.786;2023-07-30T10:31:01;12.23;;;4.57;;
16975;SDS011;8604;48.148;-1.786;2023-07-30T10:33:46;9.73;;;4.33;;
16975;SDS011;8604;48.148;-1.786;2023-07-30T10:36:18;9.70;;;4.40;;
16975;SDS011;8604;48.148;-1.786;2023-07-30T10:38:55;10.23;;;4.53;;
16975;SDS011;8604;48.148;-1.786;2023-07-30T10:41:23;10.23;;;4.23;;
16975;SDS011;8604;48.148;-1.786;2023-07-30T10:43:52;9.17;;;4.07;;
16975;SDS011;8604;48.148;-1.786;2023-07-30T10:46:21;11.13;;;4.73;;
16975;SDS011;8604;48.148;-1.786;2023-07-30T10:48:52;8.03;;;4.00;;
16975;SDS011;8604;48.148;-1.786;2023-07-30T10:51:21;9.73;;;4.23;;
16975;SDS011;8604;48.148;-1.786;2023-07-30T10:53:50;10.20;;;4.43;;
16975;SDS011;8604;48.148;-1.786;2023-07-30T10:56:21;8.17;;;4.20;;
16975;SDS011;8604;48.148;-1.786;2023-07-30T10:58:52;9.63;;;4.33;;
16975;SDS011;8604;48.148;-1.786;2023-07-30T11:01:23;9.23;;;4.30;;
16975;SDS011;8604;48.148;-1.786;2023-07-30T11:03:54;9.57;;;4.10;;
16975;SDS011;8604;48.148;-1.786;2023-07-30T11:06:24;9.75;;;4.20;;
16975;SDS011;8604;48.148;-1.786;2023-07-30T11:08:54;8.73;;;4.00;;
16975;SDS011;8604;48.148;-1.786;2023-07-30T11:11:22;8.43;;;4.13;;
16975;SDS011;8604;48.148;-1.786;2023-07-30T11:13:52;8.88;;;3.92;;
16975;SDS011;8604;48.148;-1.786;2023-07-30T11:16:20;7.82;;;4.18;;
16975;SDS011;8604;48.148;-1.786;2023-07-30T11:18:49;7.93;;;3.50;;
16975;SDS011;8604;48.148;-1.786;2023-07-30T11:21:19;11.07;;;4.03;;
16975;SDS011;8604;48.148;-1.786;2023-07-30T11:23:50;9.75;;;4.05;;
16975;SDS011;8604;48.148;-1.786;2023-07-30T11:26:19;8.43;;;3.85;;
16975;SDS011;8604;48.148;-1.786;2023-07-30T11:28:48;9.40;;;4.00;;
16975;SDS011;8604;48.148;-1.786;2023-07-30T11:31:17;7.70;;;3.70;;
16975;SDS011;8604;48.148;-1.786;2023-07-30T11:33:49;7.03;;;3.55;;
16975;SDS011;8604;48.148;-1.786;2023-07-30T11:36:21;8.57;;;3.90;;
16975;SDS011;8604;48.148;-1.786;2023-07-30T11:38:52;8.75;;;3.60;;
16975;SDS011;8604;48.148;-1.786;2023-07-30T11:41:21;11.30;;;4.30;;
16975;SDS011;8604;48.148;-1.786;2023-07-30T11:43:51;8.70;;;4.13;;
16975;SDS011;8604;48.148;-1.786;2023-07-30T11:46:20;7.55;;;3.50;;
16975;SDS011;8604;48.148;-1.786;2023-07-30T11:48:50;10.45;;;3.67;;
16975;SDS011;8604;48.148;-1.786;2023-07-30T11:51:22;9.60;;;3.88;;
16975;SDS011;8604;48.148;-1.786;2023-07-30T11:53:52;9.20;;;4.03;;
16975;SDS011;8604;48.148;-1.786;2023-07-30T11:56:22;10.87;;;4.40;;
16975;SDS011;8604;48.148;-1.786;2023-07-30T11:58:53;7.50;;;3.77;;
16975;SDS011;8604;48.148;-1.786;2023-07-30T12:01:24;7.10;;;3.40;;
16975;SDS011;8604;48.148;-1.786;2023-07-30T12:03:54;8.03;;;3.80;;
16975;SDS011;8604;48.148;-1.786;2023-07-30T12:06:24;8.90;;;3.50;;
16975;SDS011;8604;48.148;-1.786;2023-07-30T12:09:10;11.33;;;4.17;;
16975;SDS011;8604;48.148;-1.786;2023-07-30T12:11:49;9.07;;;3.80;;
16975;SDS011;8604;48.148;-1.786;2023-07-30T12:14:18;9.17;;;3.80;;
16975;SDS011;8604;48.148;-1.786;2023-07-30T12:16:49;8.57;;;3.70;;
16975;SDS011;8604;48.148;-1.786;2023-07-30T12:19:17;7.53;;;3.40;;
16975;SDS011;8604;48.148;-1.786;2023-07-30T12:21:47;8.87;;;3.83;;
16975;SDS011;8604;48.148;-1.786;2023-07-30T12:24:16;9.60;;;4.10;;
16975;SDS011;8604;48.148;-1.786;2023-07-30T12:26:45;7.47;;;3.80;;
16975;SDS011;8604;48.148;-1.786;2023-07-30T12:29:14;10.07;;;3.90;;
16975;SDS011;8604;48.148;-1.786;2023-07-30T12:31:42;10.20;;;3.87;;
16975;SDS011;8604;48.148;-1.786;2023-07-30T12:34:12;8.07;;;3.70;;
16975;SDS011;8604;48.148;-1.786;2023-07-30T12:36:41;8.20;;;3.37;;
16975;SDS011;8604;48.148;-1.786;2023-07-30T12:39:11;9.63;;;3.70;;
16975;SDS011;8604;48.148;-1.786;2023-07-30T12:41:41;7.67;;;3.60;;
16975;SDS011;8604;48.148;-1.786;2023-07-30T12:44:09;7.63;;;3.70;;
16975;SDS011;8604;48.148;-1.786;2023-07-30T12:46:38;8.30;;;3.77;;
16975;SDS011;8604;48.148;-1.786;2023-07-30T12:49:06;8.87;;;3.70;;
16975;SDS011;8604;48.148;-1.786;2023-07-30T12:51:35;11.27;;;3.90;;
16975;SDS011;8604;48.148;-1.786;2023-07-30T12:54:04;10.20;;;3.60;;
16975;SDS011;8604;48.148;-1.786;2023-07-30T12:56:34;10.57;;;3.70;;
16975;SDS011;8604;48.148;-1.786;2023-07-30T12:59:03;7.90;;;3.33;;
16975;SDS011;8604;48.148;-1.786;2023-07-30T13:01:32;8.10;;;3.33;;
16975;SDS011;8604;48.148;-1.786;2023-07-30T13:04:00;7.83;;;3.53;;
16975;SDS011;8604;48.148;-1.786;2023-07-30T13:06:29;6.80;;;3.00;;
16975;SDS011;8604;48.148;-1.786;2023-07-30T13:08:57;7.63;;;3.33;;
16975;SDS011;8604;48.148;-1.786;2023-07-30T13:11:26;7.63;;;3.20;;
16975;SDS011;8604;48.148;-1.786;2023-07-30T13:13:56;6.53;;;3.30;;
16975;SDS011;8604;48.148;-1.786;2023-07-30T13:16:24;7.03;;;3.20;;
16975;SDS011;8604;48.148;-1.786;2023-07-30T13:18:53;5.50;;;2.73;;
16975;SDS011;8604;48.148;-1.786;2023-07-30T13:21:23;5.17;;;2.40;;
16975;SDS011;8604;48.148;-1.786;2023-07-30T13:23:52;7.53;;;2.67;;
16975;SDS011;8604;48.148;-1.786;2023-07-30T13:26:20;7.37;;;2.53;;
16975;SDS011;8604;48.148;-1.786;2023-07-30T13:28:49;5.57;;;2.67;;
16975;SDS011;8604;48.148;-1.786;2023-07-30T13:31:19;5.63;;;2.67;;
16975;SDS011;8604;48.148;-1.786;2023-07-30T13:33:47;8.30;;;2.97;;
16975;SDS011;8604;48.148;-1.786;2023-07-30T13:36:17;6.10;;;2.80;;
16975;SDS011;8604;48.148;-1.786;2023-07-30T13:38:46;6.07;;;2.67;;
16975;SDS011;8604;48.148;-1.786;2023-07-30T13:41:14;6.13;;;2.50;;
16975;SDS011;8604;48.148;-1.786;2023-07-30T13:43:43;6.15;;;2.70;;
16975;SDS011;8604;48.148;-1.786;2023-07-30T13:46:11;7.37;;;2.93;;
16975;SDS011;8604;48.148;-1.786;2023-07-30T13:48:41;6.47;;;2.80;;
16975;SDS011;8604;48.148;-1.786;2023-07-30T13:51:10;6.67;;;2.70;;
16975;SDS011;8604;48.148;-1.786;2023-07-30T13:53:38;5.80;;;2.90;;
16975;SDS011;8604;48.148;-1.786;2023-07-30T13:56:08;8.20;;;3.00;;
16975;SDS011;8604;48.148;-1.786;2023-07-30T13:58:36;8.43;;;3.27;;
16975;SDS011;8604;48.148;-1.786;2023-07-30T14:01:06;10.20;;;3.40;;
16975;SDS011;8604;48.148;-1.786;2023-07-30T14:03:36;8.20;;;3.63;;
16975;SDS011;8604;48.148;-1.786;2023-07-30T14:06:06;10.67;;;3.93;;
16975;SDS011;8604;48.148;-1.786;2023-07-30T14:08:34;8.90;;;3.67;;
16975;SDS011;8604;48.148;-1.786;2023-07-30T14:11:03;8.83;;;3.60;;
16975;SDS011;8604;48.148;-1.786;2023-07-30T14:13:31;8.90;;;4.13;;
16975;SDS011;8604;48.148;-1.786;2023-07-30T14:16:00;9.87;;;3.70;;
16975;SDS011;8604;48.148;-1.786;2023-07-30T14:18:29;8.10;;;3.67;;
16975;SDS011;8604;48.148;-1.786;2023-07-30T14:20:57;8.03;;;3.47;;
16975;SDS011;8604;48.148;-1.786;2023-07-30T14:23:27;8.70;;;3.70;;
16975;SDS011;8604;48.148;-1.786;2023-07-30T14:25:56;8.60;;;3.73;;
16975;SDS011;8604;48.148;-1.786;2023-07-30T14:28:25;7.57;;;3.63;;
16975;SDS011;8604;48.148;-1.786;2023-07-30T14:30:53;8.50;;;3.57;;
16975;SDS011;8604;48.148;-1.786;2023-07-30T14:33:22;11.67;;;4.00;;
16975;SDS011;8604;48.148;-1.786;2023-07-30T14:35:51;7.83;;;3.80;;
16975;SDS011;8604;48.148;-1.786;2023-07-30T14:38:19;9.33;;;4.00;;
16975;SDS011;8604;48.148;-1.786;2023-07-30T14:40:49;8.80;;;3.77;;
16975;SDS011;8604;48.148;-1.786;2023-07-30T14:43:18;10.10;;;4.27;;
16975;SDS011;8604;48.148;-1.786;2023-07-30T14:45:47;9.03;;;4.00;;
16975;SDS011;8604;48.148;-1.786;2023-07-30T14:48:17;9.30;;;3.83;;
16975;SDS011;8604;48.148;-1.786;2023-07-30T14:50:46;8.63;;;3.53;;
16975;SDS011;8604;48.148;-1.786;2023-07-30T14:53:14;10.13;;;4.10;;
16975;SDS011;8604;48.148;-1.786;2023-07-30T14:55:43;8.03;;;3.70;;
16975;SDS011;8604;48.148;-1.786;2023-07-30T14:58:13;7.50;;;3.63;;
16975;SDS011;8604;48.148;-1.786;2023-07-30T15:00:41;7.80;;;3.63;;
16975;SDS011;8604;48.148;-1.786;2023-07-30T15:03:10;7.63;;;3.60;;
16975;SDS011;8604;48.148;-1.786;2023-07-30T15:05:39;8.50;;;3.50;;
16975;SDS011;8604;48.148;-1.786;2023-07-30T15:08:08;10.30;;;3.97;;
16975;SDS011;8604;48.148;-1.786;2023-07-30T15:10:37;9.30;;;3.80;;
16975;SDS011;8604;48.148;-1.786;2023-07-30T15:13:05;7.73;;;3.80;;
16975;SDS011;8604;48.148;-1.786;2023-07-30T15:15:35;10.23;;;4.50;;
16975;SDS011;8604;48.148;-1.786;2023-07-30T15:18:04;10.10;;;4.17;;
16975;SDS011;8604;48.148;-1.786;2023-07-30T15:20:35;8.90;;;4.13;;
16975;SDS011;8604;48.148;-1.786;2023-07-30T15:23:04;10.07;;;3.80;;
16975;SDS011;8604;48.148;-1.786;2023-07-30T15:25:32;8.70;;;4.03;;
16975;SDS011;8604;48.148;-1.786;2023-07-30T15:28:01;8.47;;;4.07;;
16975;SDS011;8604;48.148;-1.786;2023-07-30T15:30:29;9.80;;;3.63;;
16975;SDS011;8604;48.148;-1.786;2023-07-30T15:33:00;9.93;;;4.20;;